createdAt,value
2019-05-30T00:02:02.602Z,1.67
2019-05-30T00:04:29.689Z,1.50
2019-05-30T00:06:56.947Z,1.83
2019-05-30T00:09:24.215Z,1.40
2019-05-30T00:11:51.082Z,1.70
2019-05-30T00:14:17.931Z,1.80
2019-05-30T00:16:44.885Z,1.77
2019-05-30T00:19:11.797Z,1.70
2019-05-30T00:21:38.697Z,1.40
2019-05-30T00:24:06.180Z,1.90
2019-05-30T00:26:33.130Z,1.40
2019-05-30T00:29:00.309Z,1.50
2019-05-30T00:31:27.451Z,1.93
2019-05-30T00:33:55.457Z,1.77
2019-05-30T00:36:22.738Z,1.47
2019-05-30T00:38:49.572Z,1.80
2019-05-30T00:41:16.467Z,2.00
2019-05-30T00:43:43.393Z,1.60
2019-05-30T00:46:10.485Z,1.80
2019-05-30T00:48:37.305Z,1.90
2019-05-30T00:51:04.667Z,1.40
2019-05-30T00:53:31.896Z,1.60
2019-05-30T00:55:58.867Z,1.43
2019-05-30T00:58:25.698Z,2.07
2019-05-30T01:00:52.518Z,1.83
2019-05-30T01:03:19.316Z,1.77
2019-05-30T01:05:46.261Z,1.93
2019-05-30T01:08:13.077Z,1.70
2019-05-30T01:10:40.079Z,1.80
2019-05-30T01:13:07.221Z,1.70
2019-05-30T01:15:34.414Z,2.27
2019-05-30T01:18:01.223Z,2.53
2019-05-30T01:20:28.151Z,2.10
2019-05-30T01:22:55.124Z,2.00
2019-05-30T01:25:22.013Z,2.20
2019-05-30T01:27:49.066Z,2.03
2019-05-30T01:30:16.264Z,1.80
2019-05-30T01:32:43.150Z,2.03
2019-05-30T01:35:10.258Z,2.17
2019-05-30T01:37:37.187Z,2.03
2019-05-30T01:40:06.355Z,1.93
2019-05-30T01:42:33.544Z,2.37
2019-05-30T01:45:02.225Z,2.17
2019-05-30T01:47:29.425Z,2.10
2019-05-30T01:49:56.230Z,2.33
2019-05-30T01:52:23.168Z,2.30
2019-05-30T01:54:50.125Z,2.40
2019-05-30T01:57:16.927Z,2.90
2019-05-30T01:59:43.867Z,3.30
2019-05-30T02:02:11.588Z,3.20
2019-05-30T02:04:38.387Z,3.00
2019-05-30T02:07:05.342Z,3.33
2019-05-30T02:09:32.355Z,2.80
2019-05-30T02:11:59.360Z,2.60
2019-05-30T02:14:26.524Z,2.60
2019-05-30T02:16:53.420Z,2.87
2019-05-30T02:19:20.210Z,3.30
2019-05-30T02:21:47.037Z,3.03
2019-05-30T02:24:14.047Z,3.03
2019-05-30T02:26:40.938Z,2.80
2019-05-30T02:29:08.345Z,3.00
2019-05-30T02:31:39.324Z,2.50
2019-05-30T02:34:05.384Z,2.93
2019-05-30T02:36:33.090Z,3.00
2019-05-30T02:39:00.805Z,3.30
2019-05-30T02:41:27.890Z,2.80
2019-05-30T02:43:54.838Z,3.00
2019-05-30T02:46:21.752Z,3.63
2019-05-30T02:48:59.007Z,3.07
2019-05-30T02:51:17.650Z,2.60
2019-05-30T02:53:44.438Z,3.00
2019-05-30T02:56:12.603Z,3.20
2019-05-30T02:58:39.759Z,3.13
2019-05-30T03:01:08.598Z,3.27
2019-05-30T03:03:35.242Z,3.77
2019-05-30T03:06:03.867Z,3.60
2019-05-30T03:08:31.424Z,4.10
2019-05-30T03:10:58.423Z,3.90
2019-05-30T03:13:25.472Z,4.03
2019-05-30T03:15:52.458Z,3.53
2019-05-30T03:18:19.458Z,3.77
2019-05-30T03:20:46.507Z,3.53
2019-05-30T03:23:14.765Z,3.57
2019-05-30T03:25:42.204Z,3.40
2019-05-30T03:28:11.196Z,3.53
2019-05-30T03:30:38.081Z,3.10
2019-05-30T03:33:18.987Z,2.80
2019-05-30T03:35:41.856Z,2.60
2019-05-30T03:38:03.461Z,2.83
2019-05-30T03:40:32.121Z,2.50
2019-05-30T03:42:59.311Z,2.30
2019-05-30T03:45:27.333Z,2.63
2019-05-30T03:47:58.691Z,2.60
2019-05-30T03:50:28.900Z,2.10
2019-05-30T03:52:56.203Z,2.20
2019-05-30T03:55:23.611Z,2.77
2019-05-30T03:57:58.186Z,2.10
2019-05-30T04:00:37.725Z,2.23
2019-05-30T04:03:36.273Z,2.10
2019-05-30T04:06:10.186Z,1.87
2019-05-30T04:08:39.096Z,1.90
2019-05-30T04:11:10.384Z,1.70
2019-05-30T04:13:45.876Z,1.80
2019-05-30T04:16:13.518Z,1.50
2019-05-30T04:18:41.633Z,1.57
2019-05-30T04:21:09.017Z,2.37
2019-05-30T04:23:37.150Z,1.53
2019-05-30T04:26:04.123Z,1.53
2019-05-30T04:28:31.003Z,1.57
2019-05-30T04:30:57.797Z,1.30
2019-05-30T04:33:32.539Z,1.20
2019-05-30T04:35:53.435Z,1.50
2019-05-30T04:38:20.255Z,1.47
2019-05-30T04:40:47.127Z,1.50
2019-05-30T04:43:15.377Z,1.80
2019-05-30T04:45:42.552Z,1.20
2019-05-30T04:48:09.833Z,1.37
2019-05-30T04:50:36.824Z,1.27
2019-05-30T04:53:03.846Z,1.17
2019-05-30T04:55:30.870Z,1.13
2019-05-30T04:57:57.781Z,1.40
2019-05-30T05:00:24.879Z,1.77
2019-05-30T05:02:51.729Z,1.03
2019-05-30T05:05:24.094Z,0.90
2019-05-30T05:07:47.571Z,2.30
2019-05-30T05:10:16.047Z,1.00
2019-05-30T05:12:43.043Z,1.27
2019-05-30T05:15:10.379Z,1.07
2019-05-30T05:17:37.226Z,1.30
2019-05-30T05:20:04.677Z,1.00
2019-05-30T05:22:31.588Z,1.00
2019-05-30T05:24:58.452Z,1.00
2019-05-30T05:27:25.257Z,1.03
2019-05-30T05:29:52.151Z,0.97
2019-05-30T05:32:20.392Z,1.03
2019-05-30T05:34:47.399Z,1.30
2019-05-30T05:37:14.913Z,1.10
2019-05-30T05:39:42.042Z,0.90
2019-05-30T05:42:08.962Z,1.13
2019-05-30T05:44:35.776Z,1.00
2019-05-30T05:47:02.836Z,0.90
2019-05-30T05:49:29.743Z,0.90
2019-05-30T05:51:56.530Z,1.10
2019-05-30T05:54:23.375Z,1.30
2019-05-30T05:56:50.192Z,1.13
2019-05-30T05:59:17.120Z,1.17
2019-05-30T06:01:44.069Z,1.20
2019-05-30T06:04:13.536Z,1.00
2019-05-30T06:06:39.668Z,1.13
2019-05-30T06:09:06.608Z,1.20
2019-05-30T06:11:33.403Z,1.03
2019-05-30T06:14:00.327Z,1.13
2019-05-30T06:16:28.296Z,1.20
2019-05-30T06:18:58.570Z,1.47
2019-05-30T06:21:25.589Z,1.10
2019-05-30T06:23:52.430Z,1.00
2019-05-30T06:26:19.947Z,1.10
2019-05-30T06:28:46.934Z,1.47
2019-05-30T06:31:13.874Z,1.10
2019-05-30T06:33:40.734Z,1.70
2019-05-30T06:36:07.632Z,1.20
2019-05-30T06:38:34.671Z,1.43
2019-05-30T06:41:01.480Z,1.60
2019-05-30T06:43:28.386Z,1.40
2019-05-30T06:45:55.298Z,1.57
2019-05-30T06:48:22.588Z,1.40
2019-05-30T06:50:49.628Z,1.30
2019-05-30T06:53:16.523Z,1.40
2019-05-30T06:55:43.750Z,1.30
2019-05-30T06:58:10.711Z,1.10
2019-05-30T07:00:37.834Z,1.47
2019-05-30T07:03:04.746Z,1.50
2019-05-30T07:05:34.081Z,1.10
2019-05-30T07:08:00.470Z,1.10
2019-05-30T07:10:27.385Z,1.10
2019-05-30T07:12:54.338Z,1.50
2019-05-30T07:15:21.331Z,1.30
2019-05-30T07:17:48.137Z,1.30
2019-05-30T07:20:16.197Z,1.20
2019-05-30T07:22:43.138Z,1.20
2019-05-30T07:25:10.457Z,1.47
2019-05-30T07:27:37.513Z,1.40
2019-05-30T07:30:04.929Z,1.20
2019-05-30T07:32:32.139Z,1.17
2019-05-30T07:35:06.597Z,1.03
2019-05-30T07:37:28.270Z,1.40
2019-05-30T07:39:55.329Z,1.30
2019-05-30T07:42:22.242Z,1.00
2019-05-30T07:44:49.189Z,1.10
2019-05-30T07:47:16.093Z,1.50
2019-05-30T07:49:43.101Z,1.20
2019-05-30T07:52:10.018Z,1.20
2019-05-30T07:54:36.934Z,1.50
2019-05-30T07:57:03.991Z,1.03
2019-05-30T07:59:30.810Z,1.33
2019-05-30T08:01:57.730Z,1.17
2019-05-30T08:04:24.665Z,1.00
2019-05-30T08:06:51.459Z,1.40
2019-05-30T08:09:18.466Z,1.33
2019-05-30T08:11:45.506Z,1.23
2019-05-30T08:14:12.299Z,1.30
2019-05-30T08:16:39.366Z,1.20
2019-05-30T08:19:06.418Z,1.57
2019-05-30T08:21:34.231Z,1.20
2019-05-30T08:24:01.180Z,1.50
2019-05-30T08:26:28.101Z,1.23
2019-05-30T08:28:55.020Z,1.20
2019-05-30T08:31:21.973Z,1.17
2019-05-30T08:33:48.995Z,1.30
2019-05-30T08:36:15.942Z,1.20
2019-05-30T08:38:42.890Z,1.00
2019-05-30T08:41:09.805Z,0.97
2019-05-30T08:43:37.586Z,1.50
2019-05-30T08:46:04.786Z,1.40
2019-05-30T08:48:32.884Z,1.23
2019-05-30T08:51:00.245Z,1.00
2019-05-30T08:53:27.284Z,1.10
2019-05-30T08:55:54.094Z,1.10
2019-05-30T08:58:21.294Z,1.20
2019-05-30T09:00:48.198Z,1.13
2019-05-30T09:03:15.098Z,1.10
2019-05-30T09:05:58.227Z,1.20
2019-05-30T09:08:10.886Z,1.00
2019-05-30T09:10:39.165Z,2.37
2019-05-30T09:13:06.524Z,1.10
2019-05-30T09:15:33.521Z,3.40
2019-05-30T09:18:00.531Z,2.50
2019-05-30T09:20:30.690Z,2.43
2019-05-30T09:22:56.250Z,2.03
2019-05-30T09:25:23.350Z,1.53
2019-05-30T09:27:50.280Z,1.80
2019-05-30T09:30:17.492Z,2.30
2019-05-30T09:32:45.158Z,1.37
2019-05-30T09:35:15.300Z,2.20
2019-05-30T09:37:43.933Z,1.43
2019-05-30T09:40:14.250Z,1.40
2019-05-30T09:42:42.656Z,1.97
2019-05-30T09:45:10.845Z,1.90
2019-05-30T09:47:37.870Z,1.60
2019-05-30T09:50:05.163Z,1.27
2019-05-30T09:52:32.065Z,1.67
2019-05-30T09:54:58.877Z,1.47
2019-05-30T09:57:25.827Z,1.30
2019-05-30T09:59:52.614Z,1.37
2019-05-30T10:02:19.528Z,1.53
2019-05-30T10:04:46.898Z,2.07
2019-05-30T10:07:13.902Z,1.10
2019-05-30T10:09:40.838Z,1.27
2019-05-30T10:12:07.614Z,1.10
2019-05-30T10:14:34.566Z,1.17
2019-05-30T10:17:01.378Z,1.40
2019-05-30T10:19:28.290Z,1.20
2019-05-30T10:21:55.121Z,1.20
2019-05-30T10:24:21.921Z,1.20
2019-05-30T10:26:49.017Z,1.33
2019-05-30T10:29:15.966Z,1.50
2019-05-30T10:31:42.797Z,0.70
2019-05-30T10:34:09.695Z,1.20
2019-05-30T10:36:44.107Z,0.90
2019-05-30T10:39:06.579Z,1.50
2019-05-30T10:41:33.550Z,1.20
2019-05-30T10:44:00.446Z,1.13
2019-05-30T10:46:27.481Z,1.40
2019-05-30T10:48:54.823Z,1.53
2019-05-30T10:51:21.845Z,1.50
2019-05-30T10:53:50.351Z,1.40
2019-05-30T10:56:17.659Z,1.40
2019-05-30T10:58:46.581Z,1.63
2019-05-30T11:01:13.447Z,1.43
2019-05-30T11:03:40.369Z,1.60
2019-05-30T11:06:19.666Z,1.07
2019-05-30T11:08:49.165Z,1.60
2019-05-30T11:11:16.113Z,1.10
2019-05-30T11:13:42.922Z,1.53
2019-05-30T11:16:09.762Z,1.80
2019-05-30T11:18:36.682Z,1.70
2019-05-30T11:21:03.886Z,1.40
2019-05-30T11:23:30.757Z,1.30
2019-05-30T11:25:58.772Z,2.23
2019-05-30T11:28:25.753Z,1.00
2019-05-30T11:30:52.805Z,1.23
2019-05-30T11:33:19.837Z,1.50
2019-05-30T11:35:46.638Z,1.70
2019-05-30T11:38:13.591Z,1.40
2019-05-30T11:40:41.202Z,1.40
2019-05-30T11:43:08.264Z,1.30
2019-05-30T11:45:35.131Z,1.50
2019-05-30T11:48:02.127Z,1.03
2019-05-30T11:50:31.334Z,1.53
2019-05-30T11:52:58.369Z,1.20
2019-05-30T11:55:25.403Z,1.20
2019-05-30T11:57:52.373Z,1.50
2019-05-30T12:00:19.738Z,1.47
2019-05-30T12:02:46.694Z,1.53
2019-05-30T12:05:14.735Z,1.83
2019-05-30T12:07:41.670Z,1.30
2019-05-30T12:10:09.197Z,1.20
2019-05-30T12:12:36.098Z,1.30
2019-05-30T12:15:03.562Z,1.63
2019-05-30T12:17:30.376Z,1.43
2019-05-30T12:19:57.610Z,1.23
2019-05-30T12:22:24.664Z,1.80
2019-05-30T12:24:51.744Z,1.47
2019-05-30T12:27:18.704Z,1.67
2019-05-30T12:29:45.783Z,1.90
2019-05-30T12:32:12.718Z,2.03
2019-05-30T12:34:39.555Z,1.53
2019-05-30T12:37:06.552Z,1.60
2019-05-30T12:39:33.485Z,1.80
2019-05-30T12:42:01.221Z,1.90
2019-05-30T12:44:28.224Z,1.50
2019-05-30T12:46:55.549Z,2.10
2019-05-30T12:49:22.690Z,2.03
2019-05-30T12:51:50.129Z,1.50
2019-05-30T12:54:17.090Z,2.20
2019-05-30T12:56:44.000Z,2.20
2019-05-30T12:59:10.994Z,2.23
2019-05-30T13:01:37.815Z,2.10
2019-05-30T13:04:04.775Z,2.13
2019-05-30T13:06:31.681Z,2.47
2019-05-30T13:08:59.060Z,2.07
2019-05-30T13:11:26.058Z,2.60
2019-05-30T13:13:52.874Z,1.97
2019-05-30T13:16:19.722Z,3.10
2019-05-30T13:18:46.643Z,2.90
2019-05-30T13:21:13.550Z,2.67
2019-05-30T13:23:40.505Z,3.20
2019-05-30T13:26:07.474Z,2.70
2019-05-30T13:28:34.550Z,3.20
2019-05-30T13:31:02.295Z,3.60
2019-05-30T13:33:29.415Z,3.23
2019-05-30T13:35:57.008Z,3.60
2019-05-30T13:38:26.820Z,3.13
2019-05-30T13:40:52.801Z,3.00
2019-05-30T13:43:19.639Z,3.20
2019-05-30T13:45:46.522Z,3.67
2019-05-30T13:48:13.339Z,3.87
2019-05-30T13:50:40.345Z,3.70
2019-05-30T13:53:07.482Z,4.10
2019-05-30T13:55:34.536Z,4.20
2019-05-30T13:58:01.620Z,4.50
2019-05-30T14:00:28.814Z,4.33
2019-05-30T14:02:55.756Z,4.63
2019-05-30T14:05:22.779Z,4.50
2019-05-30T14:07:49.697Z,4.80
2019-05-30T14:10:16.840Z,4.57
2019-05-30T14:12:43.655Z,5.50
2019-05-30T14:15:14.301Z,5.20
2019-05-30T14:17:41.603Z,4.90
2019-05-30T14:20:11.363Z,4.83
2019-05-30T14:22:38.474Z,4.97
2019-05-30T14:25:07.434Z,5.47
2019-05-30T14:27:34.753Z,6.57
2019-05-30T14:30:03.054Z,6.70
2019-05-30T14:32:30.331Z,5.47
2019-05-30T14:34:57.141Z,5.00
2019-05-30T14:37:24.035Z,5.80
2019-05-30T14:39:50.912Z,5.67
2019-05-30T14:42:17.822Z,5.83
2019-05-30T14:44:44.757Z,5.00
2019-05-30T14:47:12.452Z,5.00
2019-05-30T14:49:39.551Z,4.87
2019-05-30T14:52:06.673Z,5.43
2019-05-30T14:54:33.809Z,4.63
2019-05-30T14:57:00.823Z,4.77
2019-05-30T14:59:27.646Z,5.20
2019-05-30T15:01:54.483Z,5.60
2019-05-30T15:04:21.302Z,6.90
2019-05-30T15:06:48.118Z,6.97
2019-05-30T15:09:25.324Z,6.23
2019-05-30T15:11:43.654Z,6.43
2019-05-30T15:14:10.892Z,6.43
2019-05-30T15:16:37.907Z,7.27
2019-05-30T15:19:06.235Z,7.93
2019-05-30T15:21:33.300Z,8.30
2019-05-30T15:24:00.297Z,8.73
2019-05-30T15:26:27.262Z,9.37
2019-05-30T15:28:54.174Z,9.07
2019-05-30T15:31:21.066Z,9.20
2019-05-30T15:33:47.870Z,9.27
2019-05-30T15:36:14.924Z,9.63
2019-05-30T15:38:42.011Z,8.67
2019-05-30T15:41:08.973Z,9.50
2019-05-30T15:43:36.002Z,8.97
2019-05-30T15:46:03.154Z,9.60
2019-05-30T15:48:30.077Z,10.00
2019-05-30T15:50:56.861Z,9.50
2019-05-30T15:53:23.900Z,10.10
2019-05-30T15:55:50.729Z,9.60
2019-05-30T15:58:18.131Z,10.23
2019-05-30T16:00:45.211Z,9.93
2019-05-30T16:03:12.245Z,10.80
2019-05-30T16:05:39.352Z,10.83
2019-05-30T16:08:06.328Z,10.20
2019-05-30T16:10:36.533Z,10.87
2019-05-30T16:13:02.102Z,10.70
2019-05-30T16:15:29.000Z,11.50
2019-05-30T16:17:55.801Z,11.57
2019-05-30T16:20:22.731Z,11.10
2019-05-30T16:22:49.515Z,12.60
2019-05-30T16:25:17.694Z,13.00
2019-05-30T16:27:44.891Z,13.27
2019-05-30T16:30:12.533Z,13.10
2019-05-30T16:32:40.921Z,12.93
2019-05-30T16:35:08.707Z,13.13
2019-05-30T16:37:35.708Z,13.53
2019-05-30T16:40:06.414Z,14.13
2019-05-30T16:42:32.267Z,14.97
2019-05-30T16:44:59.065Z,13.13
2019-05-30T16:47:26.676Z,14.57
2019-05-30T16:49:53.819Z,15.60
2019-05-30T16:52:21.008Z,15.43
2019-05-30T16:54:48.110Z,17.10
2019-05-30T16:57:14.966Z,15.60
2019-05-30T16:59:41.866Z,15.90
2019-05-30T17:02:09.182Z,17.50
2019-05-30T17:04:36.222Z,17.67
2019-05-30T17:07:03.217Z,16.40
2019-05-30T17:09:30.010Z,17.47
2019-05-30T17:11:56.807Z,17.20
2019-05-30T17:14:24.006Z,18.33
2019-05-30T17:16:50.911Z,17.70
2019-05-30T17:19:18.285Z,18.97
2019-05-30T17:21:45.130Z,18.23
2019-05-30T17:24:11.909Z,18.20
2019-05-30T17:26:38.784Z,18.93
2019-05-30T17:29:05.701Z,18.83
2019-05-30T17:31:32.578Z,19.27
2019-05-30T17:33:59.502Z,19.53
2019-05-30T17:36:26.428Z,18.90
2019-05-30T17:38:53.254Z,19.27
2019-05-30T17:41:20.553Z,19.77
2019-05-30T17:43:47.605Z,18.97
2019-05-30T17:46:14.496Z,19.50
2019-05-30T17:48:41.465Z,19.87
2019-05-30T17:51:08.478Z,18.90
2019-05-30T17:53:35.778Z,20.60
2019-05-30T17:56:02.823Z,18.90
2019-05-30T17:58:30.209Z,19.57
2019-05-30T18:00:57.432Z,19.30
2019-05-30T18:03:24.581Z,20.37
2019-05-30T18:05:51.354Z,20.43
2019-05-30T18:08:18.254Z,20.70
2019-05-30T18:10:53.428Z,20.57
2019-05-30T18:13:13.991Z,21.07
2019-05-30T18:15:40.889Z,19.53
2019-05-30T18:18:07.738Z,19.90
2019-05-30T18:20:47.607Z,20.73
2019-05-30T18:23:03.655Z,20.47
2019-05-30T18:25:31.734Z,21.10
2019-05-30T18:27:59.004Z,21.57
2019-05-30T18:30:38.381Z,21.57
2019-05-30T18:33:05.278Z,21.90
2019-05-30T18:35:32.513Z,20.53
2019-05-30T18:38:01.880Z,21.60
2019-05-30T18:40:31.443Z,20.63
2019-05-30T18:42:58.347Z,21.30
2019-05-30T18:45:35.030Z,21.90
2019-05-30T18:48:01.831Z,20.97
2019-05-30T18:50:29.353Z,21.50
2019-05-30T18:52:56.300Z,21.00
2019-05-30T18:55:24.503Z,20.77
2019-05-30T18:57:51.495Z,21.47
2019-05-30T19:00:18.704Z,21.43
2019-05-30T19:02:45.519Z,21.17
2019-05-30T19:05:12.744Z,20.93
2019-05-30T19:07:39.586Z,20.50
2019-05-30T19:10:06.630Z,20.87
2019-05-30T19:12:34.319Z,21.07
2019-05-30T19:15:01.587Z,20.97
2019-05-30T19:17:29.581Z,21.03
2019-05-30T19:19:56.518Z,20.77
2019-05-30T19:22:23.424Z,20.30
2019-05-30T19:24:50.352Z,21.63
2019-05-30T19:27:17.247Z,21.03
2019-05-30T19:29:44.030Z,20.90
2019-05-30T19:32:10.933Z,20.93
2019-05-30T19:34:37.938Z,20.17
2019-05-30T19:37:04.841Z,21.00
2019-05-30T19:39:31.634Z,20.90
2019-05-30T19:41:58.583Z,20.47
2019-05-30T19:44:25.391Z,21.53
2019-05-30T19:46:52.182Z,20.87
2019-05-30T19:49:19.025Z,19.63
2019-05-30T19:51:45.809Z,20.00
2019-05-30T19:54:12.599Z,20.87
2019-05-30T19:56:41.631Z,19.30
2019-05-30T19:59:08.242Z,20.20
2019-05-30T20:01:35.812Z,20.63
2019-05-30T20:04:02.995Z,21.17
2019-05-30T20:06:30.618Z,20.80
2019-05-30T20:08:57.581Z,21.30
2019-05-30T20:11:24.454Z,20.23
2019-05-30T20:13:51.362Z,21.43
2019-05-30T20:16:18.157Z,20.33
2019-05-30T20:18:45.197Z,21.37
2019-05-30T20:21:12.090Z,19.53
2019-05-30T20:23:51.699Z,19.93
2019-05-30T20:26:07.623Z,20.00
2019-05-30T20:28:34.797Z,20.77
2019-05-30T20:31:01.846Z,21.37
2019-05-30T20:33:28.835Z,20.27
2019-05-30T20:35:55.681Z,20.20
2019-05-30T20:38:22.508Z,22.07
2019-05-30T20:40:49.367Z,20.93
2019-05-30T20:43:16.274Z,20.77
2019-05-30T20:45:48.049Z,19.93
2019-05-30T20:48:12.014Z,21.60
2019-05-30T20:50:39.105Z,20.53
2019-05-30T20:53:06.214Z,20.40
2019-05-30T20:55:34.046Z,21.10
2019-05-30T20:58:01.033Z,21.00
2019-05-30T21:00:35.593Z,21.77
2019-05-30T21:03:03.774Z,20.23
2019-05-30T21:05:31.201Z,21.00
2019-05-30T21:07:58.438Z,20.30
2019-05-30T21:10:25.746Z,19.03
2019-05-30T21:12:53.848Z,19.90
2019-05-30T21:15:20.950Z,20.27
2019-05-30T21:17:49.070Z,19.37
2019-05-30T21:20:16.201Z,19.97
2019-05-30T21:22:44.580Z,18.57
2019-05-30T21:25:11.935Z,18.33
2019-05-30T21:27:39.136Z,20.07
2019-05-30T21:30:06.589Z,19.67
2019-05-30T21:32:33.487Z,18.97
2019-05-30T21:35:00.556Z,19.67
2019-05-30T21:37:27.734Z,20.00
2019-05-30T21:39:54.549Z,20.43
2019-05-30T21:42:21.559Z,20.73
2019-05-30T21:44:51.459Z,20.70
2019-05-30T21:47:17.174Z,20.67
2019-05-30T21:49:44.943Z,21.17
2019-05-30T21:52:11.962Z,20.43
2019-05-30T21:54:39.769Z,20.83
2019-05-30T21:57:06.801Z,20.60
2019-05-30T21:59:33.725Z,20.60
2019-05-30T22:02:00.618Z,20.37
2019-05-30T22:04:27.554Z,20.63
2019-05-30T22:06:54.448Z,19.63
2019-05-30T22:09:21.272Z,19.67
2019-05-30T22:11:48.199Z,19.13
2019-05-30T22:14:14.984Z,19.70
2019-05-30T22:16:41.911Z,18.73
2019-05-30T22:19:08.941Z,19.30
2019-05-30T22:21:35.807Z,16.93
2019-05-30T22:24:03.324Z,17.90
2019-05-30T22:26:30.123Z,17.87
2019-05-30T22:28:57.054Z,18.13
2019-05-30T22:31:24.011Z,16.90
2019-05-30T22:33:51.754Z,15.97
2019-05-30T22:36:19.858Z,17.30
2019-05-30T22:38:46.855Z,17.30
2019-05-30T22:41:13.793Z,17.77
2019-05-30T22:43:40.590Z,17.60
2019-05-30T22:46:07.449Z,17.63
2019-05-30T22:48:34.262Z,17.53
2019-05-30T22:51:01.065Z,16.43
2019-05-30T22:53:28.109Z,17.13
2019-05-30T22:55:55.043Z,16.93
2019-05-30T22:58:22.168Z,17.90
2019-05-30T23:00:49.927Z,17.23
2019-05-30T23:03:16.910Z,17.23
2019-05-30T23:05:45.157Z,17.33
2019-05-30T23:08:31.947Z,17.50
2019-05-30T23:10:58.889Z,17.17
2019-05-30T23:13:39.606Z,17.13
2019-05-30T23:15:54.635Z,17.13
2019-05-30T23:18:21.570Z,16.23
2019-05-30T23:20:48.715Z,17.00
2019-05-30T23:23:15.778Z,17.07
2019-05-30T23:25:42.598Z,17.57
2019-05-30T23:28:09.405Z,16.70
2019-05-30T23:30:36.317Z,16.43
2019-05-30T23:33:03.418Z,16.60
2019-05-30T23:35:30.217Z,17.50
2019-05-30T23:37:57.033Z,17.27
2019-05-30T23:40:23.982Z,18.03
2019-05-30T23:42:51.001Z,17.77
2019-05-30T23:45:18.126Z,16.23
2019-05-30T23:47:44.939Z,16.50
2019-05-30T23:50:11.845Z,17.47
2019-05-30T23:52:38.682Z,17.80
2019-05-30T23:55:05.786Z,16.70
2019-05-30T23:57:32.694Z,17.63
